Heat Index SAI AWOS Graphical Display Untitled Document
Bertrand Chaffee Hospital Heliport (2NK6) Springville, New York, USA
360
18:49
27/01/2015
05
N/A
N/A
29.92
N/A
1420
16(F), -9(C)
7(F), -14(C)
8 F
67%
SCT050 OVC070
10
N/A
0"
N/A
18:49 zulu Wind 360 at 05 Knots, Altimeter 29.92
METAR K2NK6 271849Z AUTO 36005KT 10SM SCT050 OVC070 M09/M14 A2992 A02 P0000
METAR:
FAA Disclaimer--Advisory Use ONLY, not for flight info--
INFO:
Wind Direction:
Wind Speed:
Wind Gust:
Wind Variable:
Altimeter:
Dens Alt:
Elev:
Temp:
Dwpt:
Wind Chill
Rel Humidity:
Ceiling:
Visibility:
Prsnt Wea:
PCPN:
Remarks:
How to read the WebPage